createdAt,value
2018-08-08T00:01:09.193Z,23.52
2018-08-08T00:03:41.849Z,23.52
2018-08-08T00:06:12.660Z,23.38
2018-08-08T00:08:44.184Z,23.40
2018-08-08T00:11:15.999Z,23.44
2018-08-08T00:13:46.912Z,23.37
2018-08-08T00:16:17.404Z,23.32
2018-08-08T00:18:48.153Z,23.71
2018-08-08T00:21:19.597Z,23.77
2018-08-08T00:23:50.486Z,23.81
2018-08-08T00:26:21.228Z,23.69
2018-08-08T00:28:52.759Z,23.62
2018-08-08T00:36:55.359Z,23.28
2018-08-08T00:39:24.477Z,23.45
2018-08-08T00:41:53.471Z,23.46
2018-08-08T00:44:22.437Z,23.45
2018-08-08T00:46:51.388Z,23.25
2018-08-08T00:49:20.488Z,23.17
2018-08-08T00:51:49.393Z,23.24
2018-08-08T00:54:18.277Z,23.08
2018-08-08T00:56:47.418Z,23.26
2018-08-08T00:59:16.315Z,23.11
2018-08-08T01:01:45.226Z,22.89
2018-08-08T01:04:14.238Z,22.99
2018-08-08T01:06:43.182Z,23.01
2018-08-08T01:09:12.684Z,22.96
2018-08-08T01:11:48.868Z,22.91
2018-08-08T01:14:17.761Z,23.07
2018-08-08T01:16:46.595Z,23.05
2018-08-08T01:19:15.578Z,22.68
2018-08-08T01:21:44.614Z,22.41
2018-08-08T01:24:13.425Z,22.57
2018-08-08T01:26:42.932Z,22.93
2018-08-08T01:29:11.804Z,23.08
2018-08-08T01:31:42.304Z,22.89
2018-08-08T01:34:11.837Z,22.67
2018-08-08T01:36:41.375Z,22.66
2018-08-08T01:39:10.891Z,22.60
2018-08-08T01:41:44.083Z,22.70
2018-08-08T01:44:14.132Z,22.82
2018-08-08T01:46:44.043Z,23.01
2018-08-08T01:49:14.398Z,22.87
2018-08-08T01:51:44.196Z,22.77
2018-08-08T01:54:14.170Z,22.66
2018-08-08T01:59:14.145Z,22.56
2018-08-08T02:01:44.529Z,22.33
2018-08-08T02:04:13.723Z,22.22
2018-08-08T02:06:44.445Z,22.11
2018-08-08T02:09:16.870Z,21.82
2018-08-08T02:11:48.424Z,21.64
2018-08-08T02:14:18.976Z,21.91
2018-08-08T02:16:50.147Z,22.11
2018-08-08T02:19:20.350Z,21.89
2018-08-08T02:21:53.577Z,21.83
2018-08-08T02:24:22.505Z,21.97
2018-08-08T02:26:52.777Z,22.16
2018-08-08T02:29:22.593Z,22.29
2018-08-08T02:31:52.929Z,22.21
2018-08-08T02:34:22.633Z,22.24
2018-08-08T02:36:53.261Z,22.39
2018-08-08T02:39:22.212Z,22.20
2018-08-08T02:41:52.898Z,22.08
2018-08-08T02:44:22.784Z,22.32
2018-08-08T02:46:55.096Z,22.19
2018-08-08T02:49:25.934Z,22.40
2018-08-08T02:51:56.270Z,22.29
2018-08-08T02:54:25.708Z,22.42
2018-08-08T02:56:55.648Z,22.41
2018-08-08T02:59:24.818Z,22.52
2018-08-08T03:01:53.769Z,22.60
2018-08-08T03:04:23.803Z,22.64
2018-08-08T03:06:54.265Z,22.54
2018-08-08T03:09:23.354Z,22.49
2018-08-08T03:11:53.735Z,22.47
2018-08-08T03:14:23.213Z,22.44
2018-08-08T03:16:54.510Z,22.49
2018-08-08T03:19:23.479Z,22.40
2018-08-08T03:21:59.660Z,22.19
2018-08-08T03:24:38.259Z,22.18
2018-08-08T03:27:16.357Z,22.25
2018-08-08T03:29:52.854Z,22.14
2018-08-08T03:32:32.400Z,21.92
2018-08-08T03:35:15.709Z,22.10
2018-08-08T03:37:54.276Z,22.02
2018-08-08T03:43:16.297Z,22.09
2018-08-08T03:45:56.029Z,22.21
2018-08-08T03:51:16.690Z,21.84
2018-08-08T04:01:42.117Z,21.75
2018-08-08T04:04:20.891Z,21.89
2018-08-08T04:06:57.368Z,22.07
2018-08-08T04:09:33.834Z,22.27
2018-08-08T04:14:56.248Z,22.03
2018-08-08T04:17:37.333Z,22.10
2018-08-08T04:23:01.740Z,22.63
2018-08-08T04:25:48.995Z,22.56
2018-08-08T04:28:29.989Z,22.31
2018-08-08T04:33:53.013Z,22.86
2018-08-08T04:36:34.333Z,22.90
2018-08-08T04:41:51.842Z,22.96
2018-08-08T04:52:42.657Z,23.36
2018-08-08T04:55:25.374Z,23.50
2018-08-08T04:58:06.911Z,23.56
2018-08-08T05:00:44.603Z,23.38
2018-08-08T05:03:19.189Z,23.21
2018-08-08T05:05:57.285Z,23.10
2018-08-08T05:11:11.655Z,23.57
2018-08-08T05:13:46.821Z,23.76
2018-08-08T05:16:24.203Z,24.14
2018-08-08T05:19:04.633Z,24.38
2018-08-08T05:24:27.199Z,24.98
2018-08-08T05:27:05.751Z,24.99
2018-08-08T05:29:41.945Z,24.90
2018-08-08T05:32:19.362Z,25.28
2018-08-08T05:34:58.784Z,25.29
2018-08-08T05:37:34.124Z,25.53
2018-08-08T05:40:14.205Z,25.61
2018-08-08T05:42:54.047Z,25.79
2018-08-08T05:45:30.118Z,25.85
2018-08-08T05:48:08.834Z,26.26
2018-08-08T05:50:50.053Z,26.29
2018-08-08T05:53:24.699Z,26.36
2018-08-08T05:56:01.164Z,26.54
2018-08-08T05:58:36.867Z,26.41
2018-08-08T06:01:19.762Z,26.46
2018-08-08T06:04:00.618Z,26.53
2018-08-08T06:06:37.117Z,26.67
2018-08-08T06:09:18.183Z,26.76
2018-08-08T06:11:58.744Z,26.69
2018-08-08T06:14:37.972Z,26.99
2018-08-08T06:17:18.749Z,27.15
2018-08-08T06:19:58.915Z,27.25
2018-08-08T06:22:36.808Z,27.50
2018-08-08T06:25:12.942Z,27.71
2018-08-08T06:27:48.169Z,27.69
2018-08-08T06:30:32.299Z,27.80
2018-08-08T06:33:09.432Z,27.77
2018-08-08T06:35:42.841Z,27.72
2018-08-08T06:38:19.304Z,27.37
2018-08-08T06:41:02.245Z,27.12
2018-08-08T06:43:44.597Z,27.64
2018-08-08T06:46:22.421Z,27.69
2018-08-08T06:48:56.603Z,28.00
2018-08-08T06:51:34.731Z,28.14
2018-08-08T06:54:10.371Z,28.04
2018-08-08T06:56:49.430Z,28.17
2018-08-08T06:59:24.428Z,28.20
2018-08-08T07:01:57.331Z,28.23
2018-08-08T07:04:32.837Z,28.05
2018-08-08T07:07:11.024Z,28.11
2018-08-08T07:12:31.831Z,28.10
2018-08-08T07:15:09.008Z,28.33
2018-08-08T07:17:49.391Z,28.14
2018-08-08T07:20:28.411Z,28.36
2018-08-08T07:23:04.312Z,28.23
2018-08-08T07:25:40.798Z,27.92
2018-08-08T07:28:17.504Z,27.79
2018-08-08T07:30:58.068Z,28.18
2018-08-08T07:33:37.837Z,28.64
2018-08-08T07:36:13.507Z,28.73
2018-08-08T07:38:49.931Z,28.54
2018-08-08T07:41:26.241Z,28.68
2018-08-08T07:44:02.669Z,28.76
2018-08-08T07:49:24.334Z,29.11
2018-08-08T07:52:08.485Z,29.36
2018-08-08T07:54:45.684Z,29.55
2018-08-08T07:57:30.105Z,29.32
2018-08-08T08:00:12.034Z,29.51
2018-08-08T08:02:50.125Z,29.76
2018-08-08T08:05:29.440Z,29.75
2018-08-08T08:08:10.368Z,29.95
2018-08-08T08:10:55.543Z,30.03
2018-08-08T08:13:37.066Z,30.13
2018-08-08T08:16:14.914Z,29.97
2018-08-08T08:18:53.683Z,29.91
2018-08-08T08:21:37.880Z,29.88
2018-08-08T08:24:19.042Z,30.12
2018-08-08T08:26:54.838Z,30.38
2018-08-08T08:29:31.376Z,30.47
2018-08-08T08:32:08.333Z,30.55
2018-08-08T08:34:48.129Z,30.71
2018-08-08T08:37:25.535Z,31.04
2018-08-08T08:40:04.326Z,30.90
2018-08-08T08:42:40.822Z,30.34
2018-08-08T08:45:23.241Z,30.58
2018-08-08T08:48:03.379Z,31.14
2018-08-08T08:50:43.876Z,31.31
2018-08-08T08:53:19.693Z,31.37
2018-08-08T08:56:02.092Z,31.53
2018-08-08T08:58:39.247Z,31.32
2018-08-08T09:01:13.911Z,31.09
2018-08-08T09:06:35.583Z,31.44
2018-08-08T09:09:19.183Z,31.64
2018-08-08T09:11:56.920Z,31.61
2018-08-08T09:14:37.753Z,31.74
2018-08-08T09:17:17.364Z,31.72
2018-08-08T09:19:54.248Z,32.06
2018-08-08T09:22:38.678Z,32.33
2018-08-08T09:25:19.535Z,32.44
2018-08-08T09:27:57.003Z,32.37
2018-08-08T09:30:37.508Z,32.07
2018-08-08T09:33:17.041Z,32.19
2018-08-08T09:36:00.065Z,32.43
2018-08-08T09:38:37.004Z,32.94
2018-08-08T09:41:13.284Z,33.20
2018-08-08T09:43:51.294Z,33.18
2018-08-08T09:46:28.946Z,33.23
2018-08-08T09:49:06.912Z,33.45
2018-08-08T09:51:45.627Z,33.43
2018-08-08T09:54:29.741Z,33.59
2018-08-08T09:57:06.761Z,33.76
2018-08-08T09:59:41.154Z,34.25
2018-08-08T10:02:19.401Z,34.16
2018-08-08T10:05:00.492Z,34.45
2018-08-08T10:07:40.838Z,34.39
2018-08-08T10:10:19.292Z,34.00
2018-08-08T10:13:04.658Z,33.51
2018-08-08T10:15:52.183Z,33.02
2018-08-08T10:18:31.050Z,33.11
2018-08-08T10:21:09.660Z,33.64
2018-08-08T10:23:47.184Z,34.05
2018-08-08T10:26:23.618Z,34.18
2018-08-08T10:28:57.168Z,34.16
2018-08-08T10:31:34.879Z,34.20
2018-08-08T10:34:12.813Z,34.54
2018-08-08T10:36:53.138Z,34.73
2018-08-08T10:39:31.475Z,35.03
2018-08-08T10:42:12.740Z,35.36
2018-08-08T10:44:49.734Z,35.06
2018-08-08T10:47:32.900Z,35.53
2018-08-08T10:50:10.684Z,36.03
2018-08-08T10:52:49.680Z,35.70
2018-08-08T10:55:30.565Z,35.33
2018-08-08T10:58:04.668Z,34.96
2018-08-08T11:00:51.643Z,34.47
2018-08-08T11:03:28.703Z,34.26
2018-08-08T11:06:04.236Z,35.03
2018-08-08T11:08:42.735Z,35.33
2018-08-08T11:14:10.770Z,35.28
2018-08-08T11:16:47.415Z,35.64
2018-08-08T11:19:23.313Z,36.16
2018-08-08T11:22:05.023Z,36.38
2018-08-08T11:24:46.980Z,36.32
2018-08-08T11:27:26.634Z,36.20
2018-08-08T11:30:09.920Z,36.30
2018-08-08T11:32:49.265Z,36.30
2018-08-08T11:35:29.030Z,35.85
2018-08-08T11:38:07.058Z,36.55
2018-08-08T11:40:46.344Z,36.35
2018-08-08T11:43:24.913Z,35.91
2018-08-08T11:46:02.770Z,35.79
2018-08-08T11:48:43.164Z,36.49
2018-08-08T11:51:19.040Z,36.56
2018-08-08T11:53:59.856Z,36.82
2018-08-08T11:56:38.762Z,37.20
2018-08-08T11:59:16.880Z,37.04
2018-08-08T12:01:51.093Z,37.46
2018-08-08T12:04:31.145Z,37.43
2018-08-08T12:07:08.751Z,37.46
2018-08-08T12:09:43.364Z,37.44
2018-08-08T12:12:27.439Z,36.71
2018-08-08T12:15:02.706Z,36.65
2018-08-08T12:17:39.687Z,36.63
2018-08-08T12:20:13.669Z,36.29
2018-08-08T12:22:51.533Z,36.44
2018-08-08T12:25:29.839Z,36.45
2018-08-08T12:28:18.273Z,36.86
2018-08-08T12:30:54.244Z,36.36
2018-08-08T12:33:31.409Z,36.28
2018-08-08T12:36:07.405Z,36.55
2018-08-08T12:38:50.261Z,36.92
2018-08-08T12:41:30.107Z,37.18
2018-08-08T12:46:50.474Z,37.39
2018-08-08T12:49:32.160Z,37.48
2018-08-08T12:52:07.526Z,37.34
2018-08-08T12:54:48.777Z,36.98
2018-08-08T12:57:24.068Z,36.67
2018-08-08T13:00:06.716Z,36.88
2018-08-08T13:02:46.811Z,37.04
2018-08-08T13:05:31.146Z,37.11
2018-08-08T13:08:07.709Z,36.69
2018-08-08T13:10:43.578Z,36.98
2018-08-08T13:13:28.105Z,37.16
2018-08-08T13:16:04.184Z,37.23
2018-08-08T13:18:41.658Z,37.49
2018-08-08T13:21:21.934Z,38.13
2018-08-08T13:23:59.350Z,38.01
2018-08-08T13:26:34.639Z,37.67
2018-08-08T13:29:09.605Z,37.77
2018-08-08T13:31:46.893Z,37.65
2018-08-08T13:34:19.685Z,37.37
2018-08-08T13:36:51.572Z,37.12
2018-08-08T13:39:31.211Z,37.08
2018-08-08T13:42:11.187Z,36.76
2018-08-08T13:44:49.530Z,37.56
2018-08-08T13:47:29.557Z,37.87
2018-08-08T13:50:06.376Z,38.32
2018-08-08T13:52:45.913Z,38.48
2018-08-08T13:55:26.422Z,38.26
2018-08-08T13:58:07.143Z,37.91
2018-08-08T14:00:46.337Z,38.09
2018-08-08T14:03:20.895Z,38.05
2018-08-08T14:05:56.255Z,38.19
2018-08-08T14:08:39.442Z,38.23
2018-08-08T14:11:21.430Z,37.76
2018-08-08T14:14:00.106Z,37.87
2018-08-08T14:16:44.279Z,38.08
2018-08-08T14:19:17.050Z,38.21
2018-08-08T14:21:57.705Z,38.04
2018-08-08T14:24:42.751Z,38.27
2018-08-08T14:27:19.593Z,38.18
2018-08-08T14:29:54.986Z,38.09
2018-08-08T14:32:28.660Z,38.39
2018-08-08T14:35:04.732Z,38.15
2018-08-08T14:37:38.658Z,38.36
2018-08-08T14:40:12.191Z,38.63
2018-08-08T14:42:48.143Z,38.46
2018-08-08T14:45:24.496Z,38.43
2018-08-08T14:47:58.767Z,37.94
2018-08-08T14:50:36.676Z,38.05
2018-08-08T14:53:12.830Z,38.16
2018-08-08T14:55:52.121Z,37.21
2018-08-08T14:58:30.761Z,37.52
2018-08-08T15:01:06.642Z,37.29
2018-08-08T15:03:50.042Z,36.92
2018-08-08T15:06:25.953Z,36.92
2018-08-08T15:09:01.527Z,36.70
2018-08-08T15:11:40.757Z,36.51
2018-08-08T15:14:19.478Z,36.68
2018-08-08T15:16:54.515Z,36.69
2018-08-08T15:19:30.887Z,36.70
2018-08-08T15:22:07.563Z,36.64
2018-08-08T15:24:44.574Z,36.29
2018-08-08T15:27:19.185Z,36.09
2018-08-08T15:29:59.426Z,36.29
2018-08-08T15:32:38.694Z,36.19
2018-08-08T15:35:21.058Z,35.83
2018-08-08T15:37:52.431Z,36.11
2018-08-08T15:40:30.600Z,36.31
2018-08-08T15:43:08.795Z,36.53
2018-08-08T15:45:49.926Z,36.85
2018-08-08T15:48:25.552Z,36.90
2018-08-08T15:50:59.403Z,36.86
2018-08-08T15:53:40.211Z,36.42
2018-08-08T15:59:09.244Z,35.17
2018-08-08T16:01:49.975Z,35.15
2018-08-08T16:04:23.003Z,35.10
2018-08-08T16:07:02.540Z,35.20
2018-08-08T16:09:43.551Z,35.38
2018-08-08T16:12:24.980Z,35.47
2018-08-08T16:17:48.807Z,35.04
2018-08-08T16:20:23.542Z,34.97
2018-08-08T16:22:59.420Z,35.06
2018-08-08T16:25:36.512Z,35.10
2018-08-08T16:28:17.444Z,35.04
2018-08-08T16:30:59.118Z,34.99
2018-08-08T16:33:40.293Z,34.85
2018-08-08T16:36:16.393Z,34.79
2018-08-08T16:38:52.848Z,34.78
2018-08-08T16:41:30.711Z,34.78
2018-08-08T16:44:06.328Z,34.77
2018-08-08T16:46:41.702Z,34.72
2018-08-08T16:51:59.802Z,34.71
2018-08-08T16:54:34.533Z,34.63
2018-08-08T16:57:14.780Z,34.56
2018-08-08T16:59:56.952Z,34.39
2018-08-08T17:02:34.403Z,34.39
2018-08-08T17:05:08.834Z,34.36
2018-08-08T17:07:45.326Z,34.32
2018-08-08T17:10:27.345Z,34.24
2018-08-08T17:13:07.331Z,33.99
2018-08-08T17:15:42.075Z,33.73
2018-08-08T17:18:22.544Z,33.61
2018-08-08T17:21:00.310Z,33.54
2018-08-08T17:23:36.313Z,33.54
2018-08-08T17:26:08.595Z,33.53
2018-08-08T17:28:45.717Z,33.47
2018-08-08T17:31:21.472Z,33.58
2018-08-08T17:33:58.038Z,33.77
2018-08-08T17:36:38.444Z,33.83
2018-08-08T17:39:15.238Z,33.80
2018-08-08T17:41:52.846Z,33.76
2018-08-08T17:44:38.043Z,33.70
2018-08-08T17:47:15.280Z,33.65
2018-08-08T17:50:00.143Z,33.53
2018-08-08T17:52:37.329Z,33.31
2018-08-08T17:55:22.858Z,33.13
2018-08-08T17:58:03.283Z,32.91
2018-08-08T18:00:40.061Z,32.92
2018-08-08T18:03:17.829Z,32.97
2018-08-08T18:05:57.174Z,32.95
2018-08-08T18:08:35.623Z,32.92
2018-08-08T18:11:24.381Z,32.89
2018-08-08T18:13:59.775Z,32.71
2018-08-08T18:16:38.065Z,32.60
2018-08-08T18:19:14.874Z,32.44
2018-08-08T18:21:56.235Z,32.37
2018-08-08T18:24:40.732Z,32.34
2018-08-08T18:27:18.024Z,32.27
2018-08-08T18:29:59.931Z,32.19
2018-08-08T18:32:36.395Z,32.27
2018-08-08T18:35:11.751Z,32.25
2018-08-08T18:37:46.571Z,32.44
2018-08-08T18:40:24.755Z,32.45
2018-08-08T18:43:03.942Z,32.48
2018-08-08T18:45:39.569Z,32.30
2018-08-08T18:51:03.855Z,31.99
2018-08-08T18:53:42.856Z,31.87
2018-08-08T18:56:20.335Z,31.91
2018-08-08T18:59:05.616Z,32.19
2018-08-08T19:01:44.435Z,31.98
2018-08-08T19:04:26.404Z,31.92
2018-08-08T19:07:03.768Z,31.10
2018-08-08T19:09:36.528Z,30.42
2018-08-08T19:12:13.564Z,29.79
2018-08-08T19:14:54.411Z,29.48
2018-08-08T19:17:33.505Z,29.50
2018-08-08T19:20:14.954Z,29.68
2018-08-08T19:22:47.135Z,30.07
2018-08-08T19:25:28.023Z,30.02
2018-08-08T19:28:05.210Z,29.87
2018-08-08T19:30:43.533Z,29.96
2018-08-08T19:33:23.880Z,29.56
2018-08-08T19:38:45.195Z,28.59
2018-08-08T19:41:20.430Z,28.34
2018-08-08T19:43:58.136Z,28.21
2018-08-08T19:46:37.009Z,28.10
2018-08-08T19:49:15.544Z,27.87
2018-08-08T19:51:56.010Z,27.21
2018-08-08T19:54:37.277Z,27.20
2018-08-08T19:57:21.939Z,27.64
2018-08-08T20:02:39.809Z,27.40
2018-08-08T20:05:19.387Z,26.98
2018-08-08T20:07:55.309Z,27.15
2018-08-08T20:10:29.731Z,26.59
2018-08-08T20:13:03.946Z,26.19
2018-08-08T20:15:39.813Z,26.35
2018-08-08T20:18:19.558Z,26.23
2018-08-08T20:20:55.876Z,25.92
2018-08-08T20:23:37.208Z,26.08
2018-08-08T20:26:16.596Z,26.11
2018-08-08T20:28:55.869Z,26.25
2018-08-08T20:31:31.433Z,26.16
2018-08-08T20:34:08.298Z,26.02
2018-08-08T20:36:50.026Z,25.82
2018-08-08T20:39:26.817Z,26.07
2018-08-08T20:42:05.489Z,26.11
2018-08-08T20:44:42.125Z,26.09
2018-08-08T20:47:26.720Z,26.02
2018-08-08T20:50:05.547Z,26.24
2018-08-08T20:52:41.506Z,26.28
2018-08-08T20:55:19.085Z,26.50
2018-08-08T20:57:56.997Z,26.55
2018-08-08T21:00:34.930Z,26.62
2018-08-08T21:06:00.074Z,26.70
2018-08-08T21:08:36.610Z,26.76
2018-08-08T21:11:10.567Z,26.59
2018-08-08T21:14:02.434Z,26.75
2018-08-08T21:16:39.568Z,26.79
2018-08-08T21:19:17.655Z,26.86
2018-08-08T21:22:00.413Z,26.68
2018-08-08T21:24:37.750Z,26.51
2018-08-08T21:27:20.428Z,26.22
2018-08-08T21:30:01.646Z,26.40
2018-08-08T21:32:41.081Z,26.57
2018-08-08T21:35:21.080Z,26.66
2018-08-08T21:37:54.846Z,26.74
2018-08-08T21:40:34.433Z,26.93
2018-08-08T21:43:20.360Z,27.03
2018-08-08T21:45:56.429Z,26.88
2018-08-08T21:48:30.625Z,26.75
2018-08-08T21:51:09.514Z,26.56
2018-08-08T21:53:52.823Z,26.75
2018-08-08T21:58:41.582Z,26.68
2018-08-08T22:06:15.248Z,25.91
2018-08-08T22:08:57.580Z,25.65
2018-08-08T22:11:44.997Z,25.81
2018-08-08T22:14:28.448Z,26.07
2018-08-08T22:19:53.023Z,26.25
2018-08-08T22:22:34.777Z,26.29
2018-08-08T22:25:12.726Z,26.24
2018-08-08T22:27:53.215Z,26.25
2018-08-08T22:30:29.295Z,26.09
2018-08-08T22:33:05.860Z,26.24
2018-08-08T22:38:25.725Z,26.20
2018-08-08T22:41:01.154Z,26.04
2018-08-08T22:43:36.991Z,25.81
2018-08-08T22:46:13.846Z,25.49
2018-08-08T22:48:50.880Z,25.78
2018-08-08T22:51:25.304Z,25.77
2018-08-08T22:54:04.711Z,25.96
2018-08-08T22:56:48.128Z,25.65
2018-08-08T22:59:31.866Z,25.60
2018-08-08T23:02:10.187Z,25.64
2018-08-08T23:04:48.046Z,25.52
2018-08-08T23:07:23.812Z,25.56
2018-08-08T23:09:59.914Z,25.48
2018-08-08T23:12:35.156Z,25.38
2018-08-08T23:15:14.375Z,25.34
2018-08-08T23:17:48.306Z,25.46
2018-08-08T23:20:27.020Z,25.46
2018-08-08T23:23:09.764Z,25.52
2018-08-08T23:25:46.957Z,25.28
2018-08-08T23:28:20.222Z,25.36
2018-08-08T23:31:03.436Z,25.35
2018-08-08T23:33:42.877Z,25.30
2018-08-08T23:36:22.617Z,25.36
2018-08-08T23:39:04.210Z,25.29
2018-08-08T23:41:41.672Z,25.14
2018-08-08T23:44:20.205Z,25.27
2018-08-08T23:46:58.875Z,25.17
2018-08-08T23:49:36.856Z,25.36
2018-08-08T23:52:12.822Z,25.30
2018-08-08T23:54:49.267Z,25.06
2018-08-08T23:57:26.390Z,25.07
